createdAt,value
2016-12-05T00:00:46.125Z,99.99
2016-12-05T00:01:46.152Z,99.99
2016-12-05T00:02:46.177Z,99.99
2016-12-05T00:03:46.112Z,99.99
2016-12-05T00:04:46.048Z,99.99
2016-12-05T00:05:46.071Z,99.99
2016-12-05T00:06:45.910Z,99.99
2016-12-05T00:07:45.940Z,99.99
2016-12-05T00:08:45.965Z,99.99
2016-12-05T00:09:45.995Z,99.99
2016-12-05T00:10:45.929Z,99.99
2016-12-05T00:11:45.869Z,99.99
2016-12-05T00:12:45.898Z,99.99
2016-12-05T00:13:45.924Z,99.99
2016-12-05T00:14:45.854Z,99.99
2016-12-05T00:15:45.793Z,99.99
2016-12-05T00:16:45.635Z,99.99
2016-12-05T00:17:45.511Z,99.99
2016-12-05T00:18:45.547Z,99.99
2016-12-05T00:19:45.493Z,99.99
2016-12-05T00:20:45.522Z,99.99
2016-12-05T00:21:45.554Z,99.99
2016-12-05T00:22:45.595Z,99.99
2016-12-05T00:23:45.544Z,99.99
2016-12-05T00:24:45.578Z,99.99
2016-12-05T00:25:45.619Z,99.99
2016-12-05T00:26:45.649Z,99.99
2016-12-05T00:27:45.585Z,99.99
2016-12-05T00:28:45.436Z,99.99
2016-12-05T00:29:45.474Z,99.99
2016-12-05T00:30:45.408Z,99.99
2016-12-05T00:31:45.340Z,99.99
2016-12-05T00:32:45.368Z,99.99
2016-12-05T00:33:45.306Z,99.99
2016-12-05T00:34:45.353Z,99.99
2016-12-05T00:35:45.375Z,99.99
2016-12-05T00:36:45.318Z,99.99
2016-12-05T00:37:45.254Z,99.99
2016-12-05T00:38:45.282Z,99.99
2016-12-05T00:39:45.312Z,99.99
2016-12-05T00:40:45.246Z,99.99
2016-12-05T00:41:45.275Z,99.99
2016-12-05T00:42:45.298Z,99.99
2016-12-05T00:43:45.232Z,99.99
2016-12-05T00:44:45.169Z,99.99
2016-12-05T00:45:45.011Z,99.99
2016-12-05T00:46:44.947Z,99.99
2016-12-05T00:47:44.881Z,99.99
2016-12-05T00:48:44.908Z,99.99
2016-12-05T00:49:44.840Z,99.99
2016-12-05T00:50:44.778Z,99.99
2016-12-05T00:51:44.712Z,99.99
2016-12-05T00:52:44.740Z,99.99
2016-12-05T00:53:44.764Z,99.99
2016-12-05T00:54:44.790Z,99.99
2016-12-05T00:55:44.726Z,99.99
2016-12-05T00:56:44.657Z,99.99
2016-12-05T00:57:44.596Z,99.99
2016-12-05T00:58:44.531Z,99.99
2016-12-05T00:59:44.561Z,99.99
2016-12-05T01:00:44.404Z,99.99
2016-12-05T01:01:44.431Z,99.99
2016-12-05T01:02:44.365Z,99.99
2016-12-05T01:03:44.299Z,99.99
2016-12-05T01:04:44.237Z,99.99
2016-12-05T01:05:44.171Z,99.99
2016-12-05T01:06:44.203Z,99.99
2016-12-05T01:07:44.227Z,99.99
2016-12-05T01:08:44.073Z,99.99
2016-12-05T01:09:44.005Z,99.99
2016-12-05T01:10:44.037Z,99.99
2016-12-05T01:11:43.969Z,99.99
2016-12-05T01:12:43.998Z,99.99
2016-12-05T01:13:44.025Z,99.99
2016-12-05T01:14:43.956Z,99.99
2016-12-05T01:15:43.704Z,99.99
2016-12-05T01:16:43.643Z,99.99
2016-12-05T01:17:43.672Z,99.99
2016-12-05T01:18:43.699Z,99.99
2016-12-05T01:19:43.722Z,99.99
2016-12-05T01:20:43.657Z,99.99
2016-12-05T01:21:43.684Z,99.99
2016-12-05T01:22:43.705Z,99.99
2016-12-05T01:23:43.730Z,99.99
2016-12-05T01:24:43.669Z,99.99
2016-12-05T01:25:43.699Z,99.99
2016-12-05T01:26:43.726Z,99.99
2016-12-05T01:27:43.754Z,99.99
2016-12-05T01:28:43.779Z,99.99
2016-12-05T01:29:43.809Z,99.99
2016-12-05T01:30:43.834Z,99.99
2016-12-05T01:31:43.855Z,99.99
2016-12-05T01:32:43.882Z,99.99
2016-12-05T01:33:43.912Z,99.99
2016-12-05T01:34:43.937Z,99.99
2016-12-05T01:35:43.873Z,99.99
2016-12-05T01:36:43.809Z,99.99
2016-12-05T01:37:43.741Z,99.99
2016-12-05T01:38:43.771Z,99.99
2016-12-05T01:39:43.700Z,99.99
2016-12-05T01:40:43.543Z,99.99
2016-12-05T01:41:43.572Z,99.99
2016-12-05T01:42:43.502Z,99.99
2016-12-05T01:43:43.437Z,99.99
2016-12-05T01:44:43.463Z,99.99
2016-12-05T01:45:43.399Z,99.99
2016-12-05T01:46:43.331Z,99.99
2016-12-05T01:47:43.361Z,99.99
2016-12-05T01:48:43.388Z,99.99
2016-12-05T01:49:43.320Z,99.99
2016-12-05T01:50:43.350Z,99.99
2016-12-05T01:51:43.281Z,99.99
2016-12-05T01:52:43.307Z,99.99
2016-12-05T01:53:43.332Z,99.99
2016-12-05T01:54:43.357Z,99.99
2016-12-05T01:55:43.386Z,99.99
2016-12-05T01:56:43.410Z,99.99
2016-12-05T01:57:43.439Z,99.99
2016-12-05T01:58:43.371Z,99.99
2016-12-05T01:59:43.307Z,99.99
2016-12-05T02:00:43.337Z,99.99
2016-12-05T02:01:43.275Z,99.99
2016-12-05T02:02:43.145Z,99.99
2016-12-05T02:03:43.171Z,99.99
2016-12-05T02:04:43.198Z,99.99
2016-12-05T02:05:43.221Z,99.99
2016-12-05T02:06:43.246Z,99.99
2016-12-05T02:07:43.187Z,99.99
2016-12-05T02:08:43.116Z,99.99
2016-12-05T02:09:43.144Z,99.99
2016-12-05T02:10:43.169Z,99.99
2016-12-05T02:11:43.194Z,99.99
2016-12-05T02:12:43.222Z,99.99
2016-12-05T02:13:43.247Z,99.99
2016-12-05T02:14:43.272Z,99.99
2016-12-05T02:15:43.300Z,99.99
2016-12-05T02:16:43.325Z,99.99
2016-12-05T02:17:43.350Z,99.99
2016-12-05T02:18:43.188Z,99.99
2016-12-05T02:19:43.125Z,99.99
2016-12-05T02:20:42.965Z,99.99
2016-12-05T02:21:42.992Z,99.99
2016-12-05T02:22:43.017Z,99.99
2016-12-05T02:23:43.054Z,99.99
2016-12-05T02:24:43.070Z,99.99
2016-12-05T02:25:43.098Z,99.99
2016-12-05T02:26:43.123Z,99.99
2016-12-05T02:27:42.965Z,99.99
2016-12-05T02:28:42.995Z,99.99
2016-12-05T02:29:42.927Z,99.99
2016-12-05T02:30:42.954Z,99.99
2016-12-05T02:31:42.980Z,99.99
2016-12-05T02:32:43.007Z,99.99
2016-12-05T02:33:42.847Z,99.99
2016-12-05T02:34:42.877Z,99.99
2016-12-05T02:35:42.905Z,99.99
2016-12-05T02:36:42.928Z,99.99
2016-12-05T02:37:42.957Z,99.99
2016-12-05T02:38:42.980Z,99.99
2016-12-05T02:39:43.010Z,99.99
2016-12-05T02:40:43.034Z,99.99
2016-12-05T02:41:43.061Z,99.99
2016-12-05T02:42:43.086Z,99.99
2016-12-05T02:43:43.015Z,99.99
2016-12-05T02:44:42.764Z,99.99
2016-12-05T02:45:42.700Z,99.99
2016-12-05T02:46:42.726Z,99.99
2016-12-05T02:47:42.751Z,99.99
2016-12-05T02:48:42.683Z,99.99
2016-12-05T02:49:42.710Z,99.99
2016-12-05T02:50:42.552Z,99.99
2016-12-05T02:51:42.580Z,99.99
2016-12-05T02:52:42.422Z,99.99
2016-12-05T02:53:42.449Z,99.99
2016-12-05T02:54:42.377Z,99.99
2016-12-05T02:55:42.407Z,99.99
2016-12-05T02:56:42.434Z,99.99
2016-12-05T02:57:42.459Z,99.99
2016-12-05T02:58:42.302Z,99.99
2016-12-05T02:59:42.329Z,99.99
2016-12-05T03:00:42.266Z,99.99
2016-12-05T03:01:42.291Z,99.99
2016-12-05T03:02:42.225Z,99.99
2016-12-05T03:03:42.163Z,99.99
2016-12-05T03:04:42.188Z,99.99
2016-12-05T03:05:42.216Z,99.99
2016-12-05T03:06:42.241Z,99.99
2016-12-05T03:07:42.175Z,99.99
2016-12-05T03:08:42.109Z,99.99
2016-12-05T03:09:42.043Z,99.99
2016-12-05T03:10:42.068Z,99.99
2016-12-05T03:11:42.002Z,99.99
2016-12-05T03:12:42.030Z,99.99
2016-12-05T03:13:41.966Z,99.99
2016-12-05T03:14:41.995Z,99.99
2016-12-05T03:15:42.023Z,99.99
2016-12-05T03:16:42.050Z,99.99
2016-12-05T03:17:42.078Z,99.99
2016-12-05T03:18:42.103Z,99.99
2016-12-05T03:19:42.128Z,99.99
2016-12-05T03:20:42.156Z,99.99
2016-12-05T03:21:42.090Z,99.99
2016-12-05T03:22:42.026Z,99.99
2016-12-05T03:23:42.053Z,99.99
2016-12-05T03:24:42.079Z,99.99
2016-12-05T03:25:42.107Z,99.99
2016-12-05T03:26:42.132Z,99.99
2016-12-05T03:27:42.072Z,99.99
2016-12-05T03:28:42.006Z,99.99
2016-12-05T03:29:42.036Z,99.99
2016-12-05T03:30:41.968Z,99.99
2016-12-05T03:31:41.995Z,99.99
2016-12-05T03:32:41.926Z,99.99
2016-12-05T03:33:41.955Z,99.99
2016-12-05T03:34:41.890Z,99.99
2016-12-05T03:35:41.919Z,99.99
2016-12-05T03:36:41.944Z,99.99
2016-12-05T03:37:41.883Z,99.99
2016-12-05T03:38:41.815Z,99.99
2016-12-05T03:39:41.754Z,99.99
2016-12-05T03:40:41.781Z,99.99
2016-12-05T03:41:41.806Z,99.99
2016-12-05T03:42:41.647Z,99.99
2016-12-05T03:43:41.677Z,99.99
2016-12-05T03:44:41.608Z,99.99
2016-12-05T03:45:41.641Z,99.99
2016-12-05T03:46:41.576Z,99.99
2016-12-05T03:47:41.601Z,99.99
2016-12-05T03:48:41.537Z,99.99
2016-12-05T03:49:41.382Z,99.99
2016-12-05T03:50:41.312Z,99.99
2016-12-05T03:51:41.246Z,99.99
2016-12-05T03:52:41.184Z,99.99
2016-12-05T03:53:41.118Z,99.99
2016-12-05T03:54:41.148Z,99.99
2016-12-05T03:55:41.179Z,99.99
2016-12-05T03:56:41.201Z,99.99
2016-12-05T03:57:41.229Z,99.99
2016-12-05T03:58:41.169Z,99.99
2016-12-05T03:59:41.194Z,99.99
2016-12-05T04:00:41.126Z,99.99
2016-12-05T04:01:41.153Z,99.99
2016-12-05T04:02:41.087Z,99.99
2016-12-05T04:03:41.021Z,99.99
2016-12-05T04:04:40.959Z,99.99
2016-12-05T04:05:40.893Z,99.99
2016-12-05T04:06:40.827Z,99.99
2016-12-05T04:07:40.854Z,99.99
2016-12-05T04:08:40.792Z,99.99
2016-12-05T04:09:40.820Z,99.99
2016-12-05T04:10:40.843Z,99.99
2016-12-05T04:11:40.685Z,99.99
2016-12-05T04:12:40.710Z,99.99
2016-12-05T04:13:40.738Z,99.99
2016-12-05T04:14:40.672Z,99.99
2016-12-05T04:15:40.614Z,99.99
2016-12-05T04:16:40.642Z,99.99
2016-12-05T04:17:40.666Z,99.99
2016-12-05T04:18:40.507Z,99.99
2016-12-05T04:19:40.531Z,99.99
2016-12-05T04:20:40.462Z,99.99
2016-12-05T04:21:40.396Z,99.99
2016-12-05T04:22:40.238Z,99.99
2016-12-05T04:23:40.174Z,99.99
2016-12-05T04:24:40.195Z,99.99
2016-12-05T04:25:40.128Z,99.99
2016-12-05T04:26:40.062Z,99.99
2016-12-05T04:27:40.089Z,99.99
2016-12-05T04:28:40.115Z,99.99
2016-12-05T04:29:40.049Z,99.99
2016-12-05T04:30:39.985Z,99.99
2016-12-05T04:31:40.013Z,99.99
2016-12-05T04:32:39.948Z,99.99
2016-12-05T04:33:39.887Z,99.99
2016-12-05T04:34:39.829Z,99.99
2016-12-05T04:35:39.853Z,99.99
2016-12-05T04:36:39.786Z,99.99
2016-12-05T04:37:39.724Z,99.99
2016-12-05T04:38:39.750Z,99.99
2016-12-05T04:39:39.683Z,99.99
2016-12-05T04:40:39.714Z,99.99
2016-12-05T04:41:39.647Z,99.99
2016-12-05T04:42:39.677Z,99.99
2016-12-05T04:43:39.611Z,99.99
2016-12-05T04:44:39.638Z,99.99
2016-12-05T04:45:39.391Z,99.99
2016-12-05T04:46:39.421Z,99.99
2016-12-05T04:47:39.355Z,99.99
2016-12-05T04:48:39.289Z,99.99
2016-12-05T04:49:39.318Z,99.99
2016-12-05T04:50:39.344Z,99.99
2016-12-05T04:51:39.374Z,99.99
2016-12-05T04:52:39.307Z,99.99
2016-12-05T04:53:39.239Z,99.99
2016-12-05T04:54:39.175Z,99.99
2016-12-05T04:55:39.017Z,99.99
2016-12-05T04:56:39.047Z,99.99
2016-12-05T04:57:39.075Z,99.99
2016-12-05T04:58:39.097Z,99.99
2016-12-05T04:59:39.031Z,99.99
2016-12-05T05:00:38.965Z,99.99
2016-12-05T05:01:38.897Z,99.99
2016-12-05T05:02:38.926Z,99.99
2016-12-05T05:03:38.861Z,99.99
2016-12-05T05:04:38.792Z,99.99
2016-12-05T05:05:38.820Z,99.99
2016-12-05T05:06:38.667Z,99.99
2016-12-05T05:07:38.692Z,99.99
2016-12-05T05:08:38.625Z,99.99
2016-12-05T05:09:38.651Z,99.99
2016-12-05T05:10:38.584Z,99.99
2016-12-05T05:11:38.521Z,99.99
2016-12-05T05:12:38.544Z,99.99
2016-12-05T05:13:38.480Z,99.99
2016-12-05T05:14:38.503Z,99.99
2016-12-05T05:15:38.531Z,99.99
2016-12-05T05:16:38.467Z,99.99
2016-12-05T05:17:38.400Z,99.99
2016-12-05T05:18:38.428Z,99.99
2016-12-05T05:19:38.362Z,99.99
2016-12-05T05:20:38.294Z,99.99
2016-12-05T05:21:38.133Z,99.99
2016-12-05T05:22:38.159Z,99.99
2016-12-05T05:23:38.095Z,99.99
2016-12-05T05:24:38.120Z,99.99
2016-12-05T05:25:38.143Z,99.99
2016-12-05T05:26:38.081Z,99.99
2016-12-05T05:27:38.109Z,99.99
2016-12-05T05:28:38.134Z,99.99
2016-12-05T05:29:38.068Z,99.99
2016-12-05T05:30:38.000Z,99.99
2016-12-05T05:31:38.025Z,99.99
2016-12-05T05:32:38.050Z,99.99
2016-12-05T05:33:37.981Z,99.99
2016-12-05T05:34:38.009Z,99.99
2016-12-05T05:35:37.948Z,99.99
2016-12-05T05:36:37.886Z,99.99
2016-12-05T05:37:37.818Z,99.99
2016-12-05T05:38:37.844Z,99.99
2016-12-05T05:39:37.868Z,99.99
2016-12-05T05:40:37.802Z,99.99
2016-12-05T05:41:37.825Z,99.99
2016-12-05T05:42:37.761Z,99.99
2016-12-05T05:43:37.782Z,99.99
2016-12-05T05:44:37.807Z,99.99
2016-12-05T05:45:37.834Z,99.99
2016-12-05T05:46:37.672Z,99.99
2016-12-05T05:47:37.702Z,99.99
2016-12-05T05:48:37.636Z,99.99
2016-12-05T05:49:37.574Z,99.99
2016-12-05T05:50:37.506Z,99.99
2016-12-05T05:51:37.346Z,99.99
2016-12-05T05:52:37.371Z,99.99
2016-12-05T05:53:37.305Z,99.99
2016-12-05T05:54:37.246Z,99.99
2016-12-05T05:55:37.177Z,99.99
2016-12-05T05:56:37.202Z,99.99
2016-12-05T05:57:37.047Z,99.99
2016-12-05T05:58:37.073Z,99.99
2016-12-05T05:59:36.915Z,99.99
2016-12-05T06:00:36.669Z,99.99
2016-12-05T06:01:36.602Z,99.99
2016-12-05T06:02:36.536Z,99.99
2016-12-05T06:03:36.470Z,99.99
2016-12-05T06:04:36.406Z,99.99
2016-12-05T06:05:36.433Z,99.99
2016-12-05T06:06:36.363Z,99.99
2016-12-05T06:07:36.303Z,99.99
2016-12-05T06:08:36.146Z,99.99
2016-12-05T06:09:36.176Z,99.99
2016-12-05T06:10:36.198Z,99.99
2016-12-05T06:11:36.041Z,99.99
2016-12-05T06:12:36.071Z,99.99
2016-12-05T06:13:36.002Z,99.99
2016-12-05T06:14:35.842Z,99.99
2016-12-05T06:15:35.871Z,99.99
2016-12-05T06:16:35.804Z,99.99
2016-12-05T06:17:35.837Z,99.99
2016-12-05T06:18:35.863Z,99.99
2016-12-05T06:19:35.884Z,99.99
2016-12-05T06:20:35.818Z,99.99
2016-12-05T06:21:35.752Z,99.99
2016-12-05T06:22:35.688Z,99.99
2016-12-05T06:23:35.617Z,99.99
2016-12-05T06:24:35.649Z,99.99
2016-12-05T06:25:35.577Z,99.99
2016-12-05T06:26:35.510Z,99.99
2016-12-05T06:27:35.350Z,99.99
2016-12-05T06:28:35.379Z,99.99
2016-12-05T06:29:35.213Z,99.99
2016-12-05T06:30:35.149Z,99.99
2016-12-05T06:31:34.987Z,99.99
2016-12-05T06:32:34.829Z,99.99
2016-12-05T06:33:34.763Z,99.99
2016-12-05T06:34:34.697Z,99.99
2016-12-05T06:35:34.633Z,99.99
2016-12-05T06:36:34.564Z,99.99
2016-12-05T06:37:34.590Z,99.99
2016-12-05T06:38:34.613Z,99.99
2016-12-05T06:39:34.457Z,99.99
2016-12-05T06:40:34.486Z,99.99
2016-12-05T06:41:34.417Z,99.99
2016-12-05T06:42:34.442Z,99.99
2016-12-05T06:43:34.375Z,99.99
2016-12-05T06:44:34.309Z,99.99
2016-12-05T06:45:34.337Z,99.99
2016-12-05T06:46:34.362Z,99.99
2016-12-05T06:47:34.385Z,99.99
2016-12-05T06:48:34.227Z,99.99
2016-12-05T06:49:34.163Z,99.99
2016-12-05T06:50:34.191Z,99.99
2016-12-05T06:51:34.029Z,99.99
2016-12-05T06:52:33.871Z,99.99
2016-12-05T06:53:33.896Z,99.99
2016-12-05T06:54:33.922Z,99.99
2016-12-05T06:55:33.771Z,99.99
2016-12-05T06:56:33.799Z,99.99
2016-12-05T06:57:33.730Z,99.99
2016-12-05T06:58:33.755Z,99.99
2016-12-05T06:59:33.685Z,99.99
2016-12-05T07:00:33.710Z,99.99
2016-12-05T07:01:33.646Z,99.99
2016-12-05T07:02:33.669Z,99.99
2016-12-05T07:03:33.600Z,99.99
2016-12-05T07:04:33.440Z,99.99
2016-12-05T07:05:33.280Z,99.99
2016-12-05T07:06:33.123Z,99.99
2016-12-05T07:07:33.150Z,99.99
2016-12-05T07:08:33.082Z,99.99
2016-12-05T07:09:32.922Z,99.99
2016-12-05T07:10:32.950Z,99.99
2016-12-05T07:11:32.881Z,99.99
2016-12-05T07:12:32.909Z,99.99
2016-12-05T07:13:32.753Z,99.99
2016-12-05T07:14:32.778Z,99.99
2016-12-05T07:15:32.707Z,99.99
2016-12-05T07:16:32.637Z,99.99
2016-12-05T07:17:32.479Z,99.99
2016-12-05T07:18:32.411Z,99.99
2016-12-05T07:19:32.438Z,99.99
2016-12-05T07:20:32.463Z,99.99
2016-12-05T07:21:32.394Z,99.99
2016-12-05T07:22:32.422Z,99.99
2016-12-05T07:23:32.360Z,99.99
2016-12-05T07:24:32.385Z,99.99
2016-12-05T07:25:32.415Z,99.99
2016-12-05T07:26:32.437Z,99.99
2016-12-05T07:27:32.375Z,99.99
2016-12-05T07:28:32.305Z,99.99
2016-12-05T07:29:32.237Z,99.99
2016-12-05T07:30:32.168Z,99.99
2016-12-05T07:31:32.196Z,99.99
2016-12-05T07:32:32.223Z,99.99
2016-12-05T07:33:32.255Z,99.99
2016-12-05T07:34:32.193Z,99.99
2016-12-05T07:35:32.219Z,99.99
2016-12-05T07:36:32.148Z,99.99
2016-12-05T07:37:32.178Z,99.99
2016-12-05T07:38:32.018Z,99.99
2016-12-05T07:39:32.045Z,99.99
2016-12-05T07:40:31.888Z,99.99
2016-12-05T07:41:31.915Z,99.99
2016-12-05T07:42:31.846Z,99.99
2016-12-05T07:43:31.778Z,99.99
2016-12-05T07:44:31.719Z,99.99
2016-12-05T07:45:31.748Z,99.99
2016-12-05T07:46:31.776Z,99.99
2016-12-05T07:47:31.707Z,99.99
2016-12-05T07:48:31.637Z,99.99
2016-12-05T07:49:31.664Z,99.99
2016-12-05T07:50:31.691Z,99.99
2016-12-05T07:51:31.536Z,99.99
2016-12-05T07:52:31.380Z,99.99
2016-12-05T07:53:31.221Z,99.99
2016-12-05T07:54:31.159Z,99.99
2016-12-05T07:55:31.185Z,99.99
2016-12-05T07:56:31.118Z,99.99
2016-12-05T07:57:31.054Z,99.99
2016-12-05T07:58:30.986Z,99.99
2016-12-05T07:59:30.922Z,99.99
2016-12-05T08:00:30.853Z,99.99
2016-12-05T08:01:30.789Z,99.99
2016-12-05T08:02:30.721Z,99.99
2016-12-05T08:03:30.657Z,99.99
2016-12-05T08:04:30.684Z,99.99
2016-12-05T08:05:30.618Z,99.99
2016-12-05T08:06:30.645Z,99.99
2016-12-05T08:07:30.671Z,99.99
2016-12-05T08:08:30.603Z,99.99
2016-12-05T08:09:30.630Z,99.99
2016-12-05T08:10:30.561Z,99.99
2016-12-05T08:11:30.586Z,99.99
2016-12-05T08:12:30.521Z,99.99
2016-12-05T08:13:30.546Z,99.99
2016-12-05T08:14:30.482Z,99.99
2016-12-05T08:15:30.509Z,99.99
2016-12-05T08:16:30.537Z,99.99
2016-12-05T08:17:30.468Z,99.99
2016-12-05T08:18:30.309Z,99.99
2016-12-05T08:19:30.240Z,99.99
2016-12-05T08:20:30.082Z,99.99
2016-12-05T08:21:29.930Z,99.99
2016-12-05T08:22:29.867Z,99.99
2016-12-05T08:23:29.890Z,99.99
2016-12-05T08:24:29.732Z,99.99
2016-12-05T08:25:29.760Z,99.99
2016-12-05T08:26:29.694Z,99.99
2016-12-05T08:27:29.721Z,99.99
2016-12-05T08:28:29.748Z,99.99
2016-12-05T08:29:29.685Z,99.99
2016-12-05T08:30:29.614Z,99.99
2016-12-05T08:31:29.555Z,99.99
2016-12-05T08:32:29.486Z,99.99
2016-12-05T08:33:29.516Z,99.99
2016-12-05T08:34:29.452Z,99.99
2016-12-05T08:35:29.479Z,99.99
2016-12-05T08:36:29.507Z,99.99
2016-12-05T08:37:29.532Z,99.99
2016-12-05T08:38:29.562Z,99.99
2016-12-05T08:39:29.587Z,99.99
2016-12-05T08:40:29.521Z,99.99
2016-12-05T08:41:29.452Z,99.99
2016-12-05T08:42:29.482Z,99.99
2016-12-05T08:43:29.418Z,99.99
2016-12-05T08:44:29.351Z,99.99
2016-12-05T08:45:29.287Z,99.99
2016-12-05T08:46:29.220Z,99.99
2016-12-05T08:47:29.245Z,99.99
2016-12-05T08:48:29.272Z,99.99
2016-12-05T08:49:29.206Z,99.99
2016-12-05T08:50:29.233Z,99.99
2016-12-05T08:51:29.167Z,99.99
2016-12-05T08:52:29.009Z,99.99
2016-12-05T08:53:29.037Z,99.99
2016-12-05T08:54:28.880Z,99.99
2016-12-05T08:55:28.909Z,99.99
2016-12-05T08:56:28.843Z,99.99
2016-12-05T08:57:28.871Z,99.99
2016-12-05T08:58:28.807Z,99.99
2016-12-05T08:59:28.740Z,99.99
2016-12-05T09:00:28.677Z,99.99
2016-12-05T09:01:28.611Z,99.99
2016-12-05T09:02:28.544Z,99.99
2016-12-05T09:03:28.480Z,99.99
2016-12-05T09:04:28.414Z,99.99
2016-12-05T09:05:28.348Z,99.99
2016-12-05T09:06:28.282Z,99.99
2016-12-05T09:07:28.218Z,99.99
2016-12-05T09:08:28.243Z,99.99
2016-12-05T09:09:28.273Z,99.99
2016-12-05T09:10:28.298Z,99.99
2016-12-05T09:11:28.232Z,99.99
2016-12-05T09:12:28.074Z,99.99
2016-12-05T09:13:28.010Z,99.99
2016-12-05T09:14:27.944Z,99.99
2016-12-05T09:15:27.878Z,99.99
2016-12-05T09:16:27.816Z,99.99
2016-12-05T09:17:27.844Z,99.99
2016-12-05T09:18:27.778Z,99.99
2016-12-05T09:19:27.712Z,99.99
2016-12-05T09:20:27.650Z,99.99
2016-12-05T09:21:27.677Z,99.99
2016-12-05T09:22:27.611Z,99.99
2016-12-05T09:23:27.639Z,99.99
2016-12-05T09:24:27.572Z,99.99
2016-12-05T09:25:27.509Z,99.99
2016-12-05T09:26:27.447Z,99.99
2016-12-05T09:27:27.385Z,99.99
2016-12-05T09:28:27.319Z,99.99
2016-12-05T09:29:27.255Z,99.99
2016-12-05T09:30:27.285Z,99.99
2016-12-05T09:31:27.225Z,99.99
2016-12-05T09:32:27.253Z,99.99
2016-12-05T09:33:27.189Z,99.99
2016-12-05T09:34:27.127Z,99.99
2016-12-05T09:35:27.158Z,99.99
2016-12-05T09:36:27.091Z,99.99
2016-12-05T09:37:27.030Z,99.99
2016-12-05T09:38:27.063Z,99.99
2016-12-05T09:39:26.904Z,99.99
2016-12-05T09:40:26.841Z,99.99
2016-12-05T09:41:26.777Z,99.99
2016-12-05T09:42:26.717Z,99.99
2016-12-05T09:43:26.745Z,99.99
2016-12-05T09:44:26.498Z,99.99
2016-12-05T09:45:26.345Z,99.99
2016-12-05T09:46:26.375Z,99.99
2016-12-05T09:47:26.407Z,99.99
2016-12-05T09:48:26.434Z,99.99
2016-12-05T09:49:26.371Z,99.99
2016-12-05T09:50:26.311Z,99.99
2016-12-05T09:51:26.339Z,99.99
2016-12-05T09:52:26.373Z,99.99
2016-12-05T09:53:26.309Z,99.99
2016-12-05T09:54:26.248Z,99.99
2016-12-05T09:55:26.182Z,99.99
2016-12-05T09:56:26.038Z,99.99
2016-12-05T09:57:25.974Z,99.99
2016-12-05T09:58:26.004Z,99.99
2016-12-05T09:59:25.944Z,99.99
2016-12-05T10:00:25.796Z,99.99
2016-12-05T10:01:25.826Z,99.99
2016-12-05T10:02:25.853Z,99.99
2016-12-05T10:03:25.698Z,99.99
2016-12-05T10:04:25.634Z,99.99
2016-12-05T10:05:25.570Z,99.99
2016-12-05T10:06:25.420Z,99.99
2016-12-05T10:07:25.356Z,99.99
2016-12-05T10:08:25.294Z,99.99
2016-12-05T10:09:25.230Z,99.99
2016-12-05T10:10:25.167Z,99.99
2016-12-05T10:11:25.107Z,99.99
2016-12-05T10:12:25.041Z,99.99
2016-12-05T10:13:25.071Z,99.99
2016-12-05T10:14:25.099Z,99.99
2016-12-05T10:15:25.128Z,99.99
2016-12-05T10:16:25.156Z,99.99
2016-12-05T10:17:25.092Z,99.99
2016-12-05T10:18:25.033Z,99.99
2016-12-05T10:19:24.877Z,99.99
2016-12-05T10:20:24.907Z,99.99
2016-12-05T10:21:24.934Z,99.99
2016-12-05T10:22:24.871Z,99.99
2016-12-05T10:23:24.901Z,99.99
2016-12-05T10:24:24.837Z,99.99
2016-12-05T10:25:24.869Z,99.99
2016-12-05T10:26:24.898Z,99.99
2016-12-05T10:27:24.926Z,99.99
2016-12-05T10:28:24.866Z,99.99
2016-12-05T10:29:24.896Z,99.99
2016-12-05T10:30:24.833Z,99.83
2016-12-05T10:31:24.677Z,99.83
2016-12-05T10:32:24.709Z,99.99
2016-12-05T10:33:24.649Z,99.16
2016-12-05T10:34:24.682Z,98.63
2016-12-05T10:35:24.714Z,98.34
2016-12-05T10:36:24.653Z,98.44
2016-12-05T10:37:24.685Z,97.24
2016-12-05T10:38:24.627Z,96.12
2016-12-05T10:39:24.657Z,95.59
2016-12-05T10:40:24.596Z,94.92
2016-12-05T10:41:24.628Z,93.43
2016-12-05T10:42:24.658Z,92.75
2016-12-05T10:43:24.692Z,92.9
2016-12-05T10:44:24.633Z,93.28
2016-12-05T10:45:24.573Z,93.86
2016-12-05T10:46:24.420Z,94.15
2016-12-05T10:47:24.455Z,94
2016-12-05T10:48:24.303Z,92.94
2016-12-05T10:49:24.248Z,92.12
2016-12-05T10:50:24.281Z,90.29
2016-12-05T10:51:24.322Z,89.71
2016-12-05T10:52:24.187Z,90.09
2016-12-05T10:53:24.129Z,90.38
2016-12-05T10:54:24.073Z,90.19
2016-12-05T10:55:24.020Z,90.33
2016-12-05T10:56:23.961Z,90.33
2016-12-05T10:57:24.003Z,89.12
2016-12-05T10:58:24.035Z,88.73
2016-12-05T10:59:23.978Z,87.77
2016-12-05T11:00:24.014Z,86.75
2016-12-05T11:01:24.049Z,86.36
2016-12-05T11:02:23.895Z,85.49
2016-12-05T11:03:23.841Z,86.65
2016-12-05T11:04:23.880Z,86.46
2016-12-05T11:05:23.734Z,86.27
2016-12-05T11:06:23.770Z,85.83
2016-12-05T11:07:23.625Z,85.93
2016-12-05T11:08:23.474Z,85.29
2016-12-05T11:09:23.417Z,84.03
2016-12-05T11:10:23.268Z,84.32
2016-12-05T11:11:23.307Z,83.45
2016-12-05T11:12:23.257Z,84.13
2016-12-05T11:13:23.200Z,82.58
2016-12-05T11:14:23.237Z,83.01
2016-12-05T11:15:23.272Z,82.14
2016-12-05T11:16:23.216Z,82.62
2016-12-05T11:17:23.249Z,82.14
2016-12-05T11:18:23.194Z,81.56
2016-12-05T11:19:23.143Z,81.07
2016-12-05T11:20:23.077Z,81.5
2016-12-05T11:21:23.032Z,79.95
2016-12-05T11:22:22.883Z,80.34
2016-12-05T11:23:22.831Z,80.82
2016-12-05T11:24:22.774Z,80.2
2016-12-05T11:25:22.525Z,80.98
2016-12-05T11:26:22.564Z,81.23
2016-12-05T11:27:22.502Z,82.68
2016-12-05T11:28:22.445Z,82.14
2016-12-05T11:29:22.292Z,82.43
2016-12-05T11:30:22.329Z,81.4
2016-12-05T11:31:22.274Z,81.12
2016-12-05T11:32:22.308Z,80.28
2016-12-05T11:33:22.343Z,79.8
2016-12-05T11:34:22.382Z,78.38
2016-12-05T11:35:22.233Z,78.64
2016-12-05T11:36:22.270Z,78.25
2016-12-05T11:37:22.304Z,78.38
2016-12-05T11:38:22.245Z,77.61
2016-12-05T11:39:22.286Z,78.19
2016-12-05T11:40:22.323Z,77.94
2016-12-05T11:41:22.362Z,77.45
2016-12-05T11:42:22.305Z,77.88
2016-12-05T11:43:22.253Z,76.72
2016-12-05T11:44:22.201Z,75.74
2016-12-05T11:45:22.148Z,75.84
2016-12-05T11:46:22.096Z,75.26
2016-12-05T11:47:22.133Z,76.04
2016-12-05T11:48:22.079Z,76.48
2016-12-05T11:49:22.118Z,77.06
2016-12-05T11:50:22.161Z,76.62
2016-12-05T11:51:22.108Z,76.04
2016-12-05T11:52:22.145Z,76.48
2016-12-05T11:53:22.092Z,76.68
2016-12-05T11:54:22.042Z,77.01
2016-12-05T11:55:22.010Z,76.52
2016-12-05T11:56:21.955Z,76.42
2016-12-05T11:57:21.898Z,76.23
2016-12-05T11:58:21.935Z,76.52
2016-12-05T11:59:21.880Z,76.52
2016-12-05T12:00:21.828Z,75.36
2016-12-05T12:01:21.867Z,75.4
2016-12-05T12:02:21.906Z,74.68
2016-12-05T12:03:21.851Z,75.9
2016-12-05T12:04:21.794Z,76.97
2016-12-05T12:05:21.836Z,77.29
2016-12-05T12:06:21.873Z,76.23
2016-12-05T12:07:21.910Z,76.23
2016-12-05T12:08:21.950Z,76.56
2016-12-05T12:09:21.802Z,75.59
2016-12-05T12:10:21.842Z,75.14
2016-12-05T12:11:21.787Z,75.43
2016-12-05T12:12:21.640Z,75.59
2016-12-05T12:13:21.676Z,74.81
2016-12-05T12:14:21.529Z,75.3
2016-12-05T12:15:21.383Z,76.07
2016-12-05T12:16:21.238Z,76.14
2016-12-05T12:17:21.276Z,76.04
2016-12-05T12:18:21.222Z,77.01
2016-12-05T12:19:21.259Z,77.2
2016-12-05T12:20:21.299Z,76.75
2016-12-05T12:21:21.242Z,75.49
2016-12-05T12:22:21.187Z,75.82
2016-12-05T12:23:21.235Z,74.85
2016-12-05T12:24:21.183Z,75.24
2016-12-05T12:25:21.129Z,74.46
2016-12-05T12:26:21.074Z,74.56
2016-12-05T12:27:20.922Z,74.85
2016-12-05T12:28:20.962Z,75.14
2016-12-05T12:29:20.811Z,75.14
2016-12-05T12:30:20.758Z,75.78
2016-12-05T12:31:20.798Z,76.65
2016-12-05T12:32:20.743Z,76.4
2016-12-05T12:33:20.686Z,76.6
2016-12-05T12:34:20.533Z,76.69
2016-12-05T12:35:20.479Z,75.14
2016-12-05T12:36:20.423Z,74.65
2016-12-05T12:37:20.369Z,75.14
2016-12-05T12:38:20.406Z,75.62
2016-12-05T12:39:20.266Z,74.98
2016-12-05T12:40:20.214Z,74.5
2016-12-05T12:41:20.151Z,74.6
2016-12-05T12:42:20.191Z,74.44
2016-12-05T12:43:20.136Z,73.56
2016-12-05T12:44:20.176Z,73.27
2016-12-05T12:45:20.123Z,74.01
2016-12-05T12:46:20.069Z,74.21
2016-12-05T12:47:20.113Z,74.3
2016-12-05T12:48:20.153Z,73.85
2016-12-05T12:49:20.193Z,73.75
2016-12-05T12:50:20.043Z,73.95
2016-12-05T12:51:19.988Z,74.21
2016-12-05T12:52:19.931Z,74.69
2016-12-05T12:53:19.876Z,75.27